KATWKEGV

Guest
Details From KATW - Outagamie Co Rgnl
To KEGV - EAGLE RIVER UNION
Flight Number -
Tags generated
Created
Modified
Stats Distance 105 nm / 195 km
Max Altitude 5,100 ft / 1,554 m
Waypoints 3
Social Downloads 1
Likes 0
Share VATSIM

Download

Looking for another format? Having issues loading an existing format? Contact us
Advertisement - Login to hide

Notes

Basic altitude profile: - Ascent Rate: 2500ft/min - Ascent Speed: 250kts - Cruise Altitude: 24000ft - Cruise Speed: 320kts - Descent Rate: 1500ft/min - Descent Speed: 250kts Options: - Use NATs: yes - Use PACOTS: yes - Use low airways: yes - Use high airways: yes

Route

KATW HASAK KEGV

ID Type Via Altitude Latitude Longitude Leg Dist Tot Dist Heading (true) Name
O KATW APT - 0 ft / 0 m 44.25802˚ -88.51902˚ - 0 nm - Outagamie Co Rgnl
HASAK FIX - 5,100 ft / 1,554 m 45.54732˚ -89.10136˚ 81 nm 81 nm 342° / 342° -
O KEGV APT - 0 ft / 0 m 45.93247˚ -89.26810˚ 24 nm 105 nm 343° / 343° EAGLE RIVER UNION

Altitude Profile

Advertisement - Login to hide

KATW

Details ICAO KATW (ATW)
Name Outagamie Co Rgnl
Region United States
Timezone America/Chicago (UTC-6.0)
Stats Elevation 918 ft / 280 m (AMSL)
Location 44.258019° -88.519023°
Runways 2
Magnetic Variation 3.612° W

METAR

KATW 112045Z 30008KT 10SM BKN015 OVC028 M02/M06 A2971

Decode

TAF

TAF KATW 111724Z 1118/1218 18007KT P6SM OVC010 FM112000 28006KT P6SM OVC013 FM112100 31007KT P6SM OVC019 FM112300 33010G18KT P6SM BKN050 FM120200 32014G25KT P6SM SCT080

Decode

Departure Runways

ID Width Length Bearing (true) Bearing (mag) Surface Threshold Offset Overrun Length
03 150 ft / 46 m 8,005 ft / 2,440 m 26.04° 29.65° Concrete 0 ft / 0 m 0 ft / 0 m
11 150 ft / 46 m 6,489 ft / 1,978 m 116.19° 119.80° Concrete 0 ft / 0 m 0 ft / 0 m
21 150 ft / 46 m 8,005 ft / 2,440 m 206.05° 209.66° Concrete 0 ft / 0 m 0 ft / 0 m
29 150 ft / 46 m 6,489 ft / 1,978 m 296.20° 299.81° Concrete 0 ft / 0 m 0 ft / 0 m

KEGV

Details ICAO KEGV (EGV)
Name EAGLE RIVER UNION
Region United States
Timezone America/Chicago (UTC-6.0)
Stats Elevation 1,642 ft / 500 m (AMSL)
Location 45.932465° -89.268096°
Runways 2
Magnetic Variation 3.285° W

METAR

KEGV 112135Z AUTO 32012G18KT 5SM BR OVC007 M04/M04 A2972 RMK AO2 T10411045

Decode

TAF

Not found

Destination Runways

ID Width Length Bearing (true) Bearing (mag) Surface Threshold Offset Overrun Length
04 76 ft / 23 m 4,996 ft / 1,523 m 45.27° 48.56° Asphalt 0 ft / 0 m 300 ft / 91 m
13 60 ft / 18 m 3,396 ft / 1,035 m 132.51° 135.80° Asphalt 0 ft / 0 m 0 ft / 0 m
22 76 ft / 23 m 4,996 ft / 1,523 m 225.28° 228.57° Asphalt 0 ft / 0 m 0 ft / 0 m
31 60 ft / 18 m 3,396 ft / 1,035 m 312.52° 315.81° Asphalt 0 ft / 0 m 0 ft / 0 m